Osceola, Indiana
Current Conditions -  °F | °C
As of 4:54 PM on Saturday 20 Dec 2014 (Local Time) from KSBN Reporting Station
Overcast Overcast  
Wind Chill: -2°   Ceiling: 2800
Heat Index:   Visibility: 10mi
Dew Point: -4°   Wind: 5mph
Humidity: 70%   Direction: 250°WSW
Pressure: 30.27"   Gusts: NA
Location:  41.67°N, 86.08°W
Report Text: KSBN 202154Z 25004KT 10SM OVC028 01/M04 A3027 RMK AO2 SLP260 T00061044
Loading
Personal Weather Stations






























Interactive Weather Map New forecast layout! Learn more

10-Day Weather Forecast

Advertisements
Track Severe Weather on mobile